sensor_id;sensor_type;location;lat;lon;timestamp;pressure;altitude;pressure_sealevel;temperature;humidity
75788;BME280;64406;50.024;14.492;2024-03-02T00:00:22;96974.47;;;7.96;100.00
75788;BME280;64406;50.024;14.492;2024-03-02T00:03:11;96980.13;;;7.95;100.00
75788;BME280;64406;50.024;14.492;2024-03-02T00:05:39;96966.88;;;7.84;100.00
75788;BME280;64406;50.024;14.492;2024-03-02T00:08:06;96966.44;;;7.77;100.00
75788;BME280;64406;50.024;14.492;2024-03-02T00:10:39;96972.22;;;7.84;100.00
75788;BME280;64406;50.024;14.492;2024-03-02T00:13:06;96960.28;;;7.96;100.00
75788;BME280;64406;50.024;14.492;2024-03-02T00:15:51;96968.16;;;8.06;100.00
75788;BME280;64406;50.024;14.492;2024-03-02T00:20:53;96953.50;;;7.98;100.00
75788;BME280;64406;50.024;14.492;2024-03-02T00:23:20;96963.47;;;7.79;100.00
75788;BME280;64406;50.024;14.492;2024-03-02T00:25:48;96966.97;;;7.79;100.00
75788;BME280;64406;50.024;14.492;2024-03-02T00:28:18;96967.44;;;8.00;100.00
75788;BME280;64406;50.024;14.492;2024-03-02T00:33:19;96977.38;;;8.00;100.00
75788;BME280;64406;50.024;14.492;2024-03-02T00:35:47;96976.28;;;8.01;100.00
75788;BME280;64406;50.024;14.492;2024-03-02T00:38:13;96980.22;;;7.89;100.00
75788;BME280;64406;50.024;14.492;2024-03-02T00:40:42;96969.41;;;7.95;100.00
75788;BME280;64406;50.024;14.492;2024-03-02T00:45:55;96967.63;;;8.04;100.00
75788;BME280;64406;50.024;14.492;2024-03-02T00:48:20;96972.09;;;7.95;100.00
75788;BME280;64406;50.024;14.492;2024-03-02T00:50:51;96977.53;;;7.89;100.00
75788;BME280;64406;50.024;14.492;2024-03-02T00:53:18;96974.53;;;7.91;100.00
75788;BME280;64406;50.024;14.492;2024-03-02T00:55:50;96976.34;;;7.96;100.00
75788;BME280;64406;50.024;14.492;2024-03-02T00:58:15;96981.84;;;8.04;100.00
75788;BME280;64406;50.024;14.492;2024-03-02T01:00:41;96983.28;;;8.15;100.00
75788;BME280;64406;50.024;14.492;2024-03-02T01:03:06;96993.16;;;8.20;100.00
75788;BME280;64406;50.024;14.492;2024-03-02T01:05:33;96987.09;;;8.28;100.00
75788;BME280;64406;50.024;14.492;2024-03-02T01:07:59;96989.94;;;8.18;100.00
75788;BME280;64406;50.024;14.492;2024-03-02T01:10:24;96987.25;;;8.18;100.00
75788;BME280;64406;50.024;14.492;2024-03-02T01:12:51;96983.78;;;8.17;100.00
75788;BME280;64406;50.024;14.492;2024-03-02T01:15:17;96978.53;;;8.12;100.00
75788;BME280;64406;50.024;14.492;2024-03-02T01:17:42;96977.13;;;8.15;100.00
75788;BME280;64406;50.024;14.492;2024-03-02T01:20:09;96977.19;;;8.10;100.00
75788;BME280;64406;50.024;14.492;2024-03-02T01:22:35;96975.72;;;8.17;100.00
75788;BME280;64406;50.024;14.492;2024-03-02T01:25:01;96977.53;;;8.22;100.00
75788;BME280;64406;50.024;14.492;2024-03-02T01:27:27;96971.38;;;8.22;100.00
75788;BME280;64406;50.024;14.492;2024-03-02T01:29:53;96980.44;;;8.26;100.00
75788;BME280;64406;50.024;14.492;2024-03-02T01:32:20;96973.19;;;8.26;100.00
75788;BME280;64406;50.024;14.492;2024-03-02T01:34:45;96983.13;;;8.26;100.00
75788;BME280;64406;50.024;14.492;2024-03-02T01:37:11;96978.56;;;8.26;100.00
75788;BME280;64406;50.024;14.492;2024-03-02T01:39:37;96974.31;;;8.06;100.00
75788;BME280;64406;50.024;14.492;2024-03-02T01:42:02;96981.22;;;7.94;100.00
75788;BME280;64406;50.024;14.492;2024-03-02T01:44:28;96973.75;;;7.90;100.00
75788;BME280;64406;50.024;14.492;2024-03-02T01:46:54;96981.38;;;7.83;100.00
75788;BME280;64406;50.024;14.492;2024-03-02T01:49:19;96977.09;;;7.82;100.00
75788;BME280;64406;50.024;14.492;2024-03-02T01:51:45;96979.84;;;7.77;100.00
75788;BME280;64406;50.024;14.492;2024-03-02T01:54:11;96970.50;;;7.75;100.00
75788;BME280;64406;50.024;14.492;2024-03-02T01:56:37;96964.97;;;7.85;100.00
75788;BME280;64406;50.024;14.492;2024-03-02T01:59:03;96963.97;;;8.00;100.00
75788;BME280;64406;50.024;14.492;2024-03-02T02:01:28;96972.72;;;8.05;100.00
75788;BME280;64406;50.024;14.492;2024-03-02T02:03:54;96970.69;;;7.97;100.00
75788;BME280;64406;50.024;14.492;2024-03-02T02:06:20;96962.66;;;7.97;100.00
75788;BME280;64406;50.024;14.492;2024-03-02T02:08:47;96959.25;;;7.91;100.00
75788;BME280;64406;50.024;14.492;2024-03-02T02:11:15;96955.41;;;7.98;100.00
75788;BME280;64406;50.024;14.492;2024-03-02T02:13:41;96960.75;;;7.98;100.00
75788;BME280;64406;50.024;14.492;2024-03-02T02:16:07;96959.97;;;7.97;100.00
75788;BME280;64406;50.024;14.492;2024-03-02T02:18:33;96958.59;;;8.00;100.00
75788;BME280;64406;50.024;14.492;2024-03-02T02:20:59;96955.69;;;7.96;100.00
75788;BME280;64406;50.024;14.492;2024-03-02T02:23:25;96961.00;;;8.01;100.00
75788;BME280;64406;50.024;14.492;2024-03-02T02:25:50;96965.84;;;7.99;100.00
75788;BME280;64406;50.024;14.492;2024-03-02T02:28:16;96956.56;;;7.91;100.00
75788;BME280;64406;50.024;14.492;2024-03-02T02:30:42;96944.69;;;7.79;100.00
75788;BME280;64406;50.024;14.492;2024-03-02T02:33:08;96950.88;;;7.79;100.00
75788;BME280;64406;50.024;14.492;2024-03-02T02:35:34;96956.16;;;7.84;100.00
75788;BME280;64406;50.024;14.492;2024-03-02T02:38:00;96950.44;;;7.72;100.00
75788;BME280;64406;50.024;14.492;2024-03-02T02:40:27;96955.47;;;7.60;100.00
75788;BME280;64406;50.024;14.492;2024-03-02T02:42:57;96960.03;;;7.59;100.00
75788;BME280;64406;50.024;14.492;2024-03-02T02:45:22;96956.75;;;7.44;100.00
75788;BME280;64406;50.024;14.492;2024-03-02T02:47:48;96959.88;;;7.51;100.00
75788;BME280;64406;50.024;14.492;2024-03-02T02:50:14;96967.59;;;7.52;100.00
75788;BME280;64406;50.024;14.492;2024-03-02T02:52:41;96966.97;;;7.60;100.00
75788;BME280;64406;50.024;14.492;2024-03-02T02:55:09;96962.25;;;7.52;100.00
75788;BME280;64406;50.024;14.492;2024-03-02T02:57:35;96969.59;;;7.47;100.00
75788;BME280;64406;50.024;14.492;2024-03-02T03:00:10;96967.75;;;7.42;100.00
75788;BME280;64406;50.024;14.492;2024-03-02T03:02:41;96954.22;;;7.33;100.00
75788;BME280;64406;50.024;14.492;2024-03-02T03:05:08;96967.81;;;7.37;100.00
75788;BME280;64406;50.024;14.492;2024-03-02T03:07:34;96968.53;;;7.24;100.00
75788;BME280;64406;50.024;14.492;2024-03-02T03:10:00;96961.44;;;7.14;100.00
75788;BME280;64406;50.024;14.492;2024-03-02T03:12:26;96970.63;;;7.08;100.00
75788;BME280;64406;50.024;14.492;2024-03-02T03:14:52;96968.00;;;7.03;100.00
75788;BME280;64406;50.024;14.492;2024-03-02T03:17:18;96962.69;;;6.98;100.00
75788;BME280;64406;50.024;14.492;2024-03-02T03:19:43;96966.97;;;6.99;100.00
75788;BME280;64406;50.024;14.492;2024-03-02T03:22:09;96966.06;;;6.85;100.00
75788;BME280;64406;50.024;14.492;2024-03-02T03:24:34;96973.31;;;6.84;100.00
75788;BME280;64406;50.024;14.492;2024-03-02T03:27:00;96974.38;;;6.83;100.00
75788;BME280;64406;50.024;14.492;2024-03-02T03:29:26;96965.41;;;6.74;100.00
75788;BME280;64406;50.024;14.492;2024-03-02T03:31:51;96974.22;;;6.74;100.00
75788;BME280;64406;50.024;14.492;2024-03-02T03:34:17;96975.81;;;6.75;100.00
75788;BME280;64406;50.024;14.492;2024-03-02T03:36:43;96976.63;;;6.76;100.00
75788;BME280;64406;50.024;14.492;2024-03-02T03:39:08;96967.16;;;6.84;100.00
75788;BME280;64406;50.024;14.492;2024-03-02T03:41:34;96974.94;;;6.80;100.00
75788;BME280;64406;50.024;14.492;2024-03-02T03:44:00;96978.66;;;6.84;100.00
75788;BME280;64406;50.024;14.492;2024-03-02T03:46:25;96983.31;;;6.73;100.00
75788;BME280;64406;50.024;14.492;2024-03-02T03:48:51;96979.34;;;6.71;100.00
75788;BME280;64406;50.024;14.492;2024-03-02T03:51:17;96980.38;;;6.75;100.00
75788;BME280;64406;50.024;14.492;2024-03-02T03:53:42;96977.75;;;6.70;100.00
75788;BME280;64406;50.024;14.492;2024-03-02T03:56:08;96977.56;;;6.61;100.00
75788;BME280;64406;50.024;14.492;2024-03-02T03:58:33;96977.34;;;6.58;100.00
75788;BME280;64406;50.024;14.492;2024-03-02T04:00:59;96983.78;;;6.57;100.00
75788;BME280;64406;50.024;14.492;2024-03-02T04:03:24;96978.91;;;6.59;100.00
75788;BME280;64406;50.024;14.492;2024-03-02T04:05:51;96984.06;;;6.55;100.00
75788;BME280;64406;50.024;14.492;2024-03-02T04:08:16;96978.63;;;6.36;100.00
75788;BME280;64406;50.024;14.492;2024-03-02T04:10:42;96990.47;;;6.25;100.00
75788;BME280;64406;50.024;14.492;2024-03-02T04:13:07;96991.59;;;6.19;100.00
75788;BME280;64406;50.024;14.492;2024-03-02T04:15:33;96988.59;;;6.25;100.00
75788;BME280;64406;50.024;14.492;2024-03-02T04:17:58;96990.44;;;6.30;100.00
75788;BME280;64406;50.024;14.492;2024-03-02T04:20:27;96997.66;;;6.30;100.00
75788;BME280;64406;50.024;14.492;2024-03-02T04:22:52;97002.38;;;6.43;100.00
75788;BME280;64406;50.024;14.492;2024-03-02T04:25:18;97011.50;;;6.37;100.00
75788;BME280;64406;50.024;14.492;2024-03-02T04:27:45;97008.13;;;6.26;100.00
75788;BME280;64406;50.024;14.492;2024-03-02T04:30:11;97008.19;;;6.21;100.00
75788;BME280;64406;50.024;14.492;2024-03-02T04:32:36;97011.19;;;6.14;100.00
75788;BME280;64406;50.024;14.492;2024-03-02T04:35:02;97008.44;;;6.19;100.00
75788;BME280;64406;50.024;14.492;2024-03-02T04:37:28;97006.63;;;6.15;100.00
75788;BME280;64406;50.024;14.492;2024-03-02T04:39:53;97017.00;;;6.21;100.00
75788;BME280;64406;50.024;14.492;2024-03-02T04:42:19;97012.13;;;6.29;100.00
75788;BME280;64406;50.024;14.492;2024-03-02T04:44:45;97018.25;;;6.29;100.00
75788;BME280;64406;50.024;14.492;2024-03-02T04:47:10;97016.56;;;6.38;100.00
75788;BME280;64406;50.024;14.492;2024-03-02T04:49:36;97025.69;;;6.37;100.00
75788;BME280;64406;50.024;14.492;2024-03-02T04:52:02;97023.50;;;6.39;100.00
75788;BME280;64406;50.024;14.492;2024-03-02T04:54:28;97032.81;;;6.47;100.00
75788;BME280;64406;50.024;14.492;2024-03-02T04:56:53;97039.38;;;6.60;100.00
75788;BME280;64406;50.024;14.492;2024-03-02T04:59:19;97044.25;;;6.52;100.00
75788;BME280;64406;50.024;14.492;2024-03-02T05:01:45;97041.38;;;6.49;100.00
75788;BME280;64406;50.024;14.492;2024-03-02T05:04:11;97040.28;;;6.50;99.45
75788;BME280;64406;50.024;14.492;2024-03-02T05:06:38;97040.47;;;6.59;99.17
75788;BME280;64406;50.024;14.492;2024-03-02T05:09:04;97042.06;;;6.60;98.51
75788;BME280;64406;50.024;14.492;2024-03-02T05:11:30;97045.81;;;6.59;99.03
75788;BME280;64406;50.024;14.492;2024-03-02T05:14:05;97047.41;;;6.60;98.66
75788;BME280;64406;50.024;14.492;2024-03-02T05:16:34;97044.97;;;6.63;98.79
75788;BME280;64406;50.024;14.492;2024-03-02T05:19:00;97050.03;;;6.65;99.27
75788;BME280;64406;50.024;14.492;2024-03-02T05:21:26;97056.19;;;6.65;98.45
75788;BME280;64406;50.024;14.492;2024-03-02T05:23:52;97045.53;;;6.60;99.09
75788;BME280;64406;50.024;14.492;2024-03-02T05:26:17;97064.78;;;6.62;98.93
75788;BME280;64406;50.024;14.492;2024-03-02T05:28:43;97057.28;;;6.64;99.10
75788;BME280;64406;50.024;14.492;2024-03-02T05:31:10;97067.47;;;6.62;99.19
75788;BME280;64406;50.024;14.492;2024-03-02T05:33:39;97083.22;;;6.64;99.22
75788;BME280;64406;50.024;14.492;2024-03-02T05:36:05;97085.94;;;6.59;98.69
75788;BME280;64406;50.024;14.492;2024-03-02T05:38:32;97084.66;;;6.51;98.01
75788;BME280;64406;50.024;14.492;2024-03-02T05:40:58;97078.03;;;6.48;97.71
75788;BME280;64406;50.024;14.492;2024-03-02T05:43:23;97084.38;;;6.52;97.37
75788;BME280;64406;50.024;14.492;2024-03-02T05:45:49;97086.31;;;6.47;97.97
75788;BME280;64406;50.024;14.492;2024-03-02T05:48:14;97087.84;;;6.53;97.43
75788;BME280;64406;50.024;14.492;2024-03-02T05:50:40;97096.47;;;6.50;97.39
75788;BME280;64406;50.024;14.492;2024-03-02T05:53:06;97094.38;;;6.42;98.48
75788;BME280;64406;50.024;14.492;2024-03-02T05:55:31;97097.56;;;6.44;98.43
75788;BME280;64406;50.024;14.492;2024-03-02T05:57:57;97095.94;;;6.48;98.22
75788;BME280;64406;50.024;14.492;2024-03-02T06:00:28;97094.28;;;6.52;98.09
75788;BME280;64406;50.024;14.492;2024-03-02T06:02:56;97098.81;;;6.57;98.25
75788;BME280;64406;50.024;14.492;2024-03-02T06:05:21;97100.03;;;6.69;97.86
75788;BME280;64406;50.024;14.492;2024-03-02T06:07:47;97094.03;;;6.82;96.24
75788;BME280;64406;50.024;14.492;2024-03-02T06:10:13;97096.13;;;6.86;96.50
75788;BME280;64406;50.024;14.492;2024-03-02T06:12:38;97105.22;;;6.90;96.32
75788;BME280;64406;50.024;14.492;2024-03-02T06:15:04;97100.97;;;6.84;96.86
75788;BME280;64406;50.024;14.492;2024-03-02T06:17:30;97097.81;;;6.81;97.26
75788;BME280;64406;50.024;14.492;2024-03-02T06:19:55;97102.88;;;6.83;96.55
75788;BME280;64406;50.024;14.492;2024-03-02T06:22:21;97106.84;;;6.86;96.38
75788;BME280;64406;50.024;14.492;2024-03-02T06:24:50;97102.56;;;6.85;95.33
75788;BME280;64406;50.024;14.492;2024-03-02T06:27:16;97114.03;;;6.90;96.20
75788;BME280;64406;50.024;14.492;2024-03-02T06:29:42;97110.84;;;6.88;95.86
75788;BME280;64406;50.024;14.492;2024-03-02T06:32:07;97113.53;;;6.88;95.35
75788;BME280;64406;50.024;14.492;2024-03-02T06:34:33;97112.44;;;6.89;95.20
75788;BME280;64406;50.024;14.492;2024-03-02T06:36:59;97113.47;;;6.93;95.40
75788;BME280;64406;50.024;14.492;2024-03-02T06:39:24;97121.91;;;7.05;94.24
75788;BME280;64406;50.024;14.492;2024-03-02T06:41:51;97115.75;;;7.05;95.04
75788;BME280;64406;50.024;14.492;2024-03-02T06:44:17;97124.34;;;7.07;94.90
75788;BME280;64406;50.024;14.492;2024-03-02T06:46:43;97130.47;;;7.07;95.10
75788;BME280;64406;50.024;14.492;2024-03-02T06:49:08;97127.59;;;6.99;95.85
75788;BME280;64406;50.024;14.492;2024-03-02T06:51:36;97127.47;;;7.14;95.61
75788;BME280;64406;50.024;14.492;2024-03-02T06:54:02;97128.59;;;7.32;94.51
75788;BME280;64406;50.024;14.492;2024-03-02T06:56:28;97118.97;;;7.31;94.79
75788;BME280;64406;50.024;14.492;2024-03-02T06:58:53;97133.28;;;7.45;94.60
75788;BME280;64406;50.024;14.492;2024-03-02T07:01:19;97138.09;;;7.48;93.81
75788;BME280;64406;50.024;14.492;2024-03-02T07:03:45;97146.78;;;7.59;94.20
75788;BME280;64406;50.024;14.492;2024-03-02T07:06:11;97132.03;;;7.61;93.29
75788;BME280;64406;50.024;14.492;2024-03-02T07:08:37;97148.22;;;7.75;92.23
75788;BME280;64406;50.024;14.492;2024-03-02T07:11:02;97148.78;;;7.72;93.01
75788;BME280;64406;50.024;14.492;2024-03-02T07:13:28;97145.28;;;7.53;93.35
75788;BME280;64406;50.024;14.492;2024-03-02T07:15:54;97158.47;;;7.44;93.65
75788;BME280;64406;50.024;14.492;2024-03-02T07:18:29;97158.38;;;7.54;92.90
75788;BME280;64406;50.024;14.492;2024-03-02T07:20:56;97167.38;;;7.63;92.84
75788;BME280;64406;50.024;14.492;2024-03-02T07:23:29;97159.78;;;7.71;92.10
75788;BME280;64406;50.024;14.492;2024-03-02T07:25:56;97166.19;;;7.75;93.08
75788;BME280;64406;50.024;14.492;2024-03-02T07:28:28;97171.91;;;7.68;93.48
75788;BME280;64406;50.024;14.492;2024-03-02T07:31:04;97179.16;;;7.68;92.88
75788;BME280;64406;50.024;14.492;2024-03-02T07:33:33;97180.34;;;7.56;93.21
75788;BME280;64406;50.024;14.492;2024-03-02T07:35:59;97168.22;;;7.59;92.95
75788;BME280;64406;50.024;14.492;2024-03-02T07:38:26;97175.31;;;7.50;93.61
75788;BME280;64406;50.024;14.492;2024-03-02T07:40:53;97175.66;;;7.67;93.02
75788;BME280;64406;50.024;14.492;2024-03-02T07:43:19;97170.63;;;7.84;92.17
75788;BME280;64406;50.024;14.492;2024-03-02T07:45:45;97169.56;;;8.04;91.12
75788;BME280;64406;50.024;14.492;2024-03-02T07:48:11;97173.41;;;7.98;90.62
75788;BME280;64406;50.024;14.492;2024-03-02T07:50:37;97168.22;;;8.07;89.55
75788;BME280;64406;50.024;14.492;2024-03-02T07:53:04;97169.56;;;8.04;89.34
75788;BME280;64406;50.024;14.492;2024-03-02T07:55:31;97163.66;;;7.83;88.09
75788;BME280;64406;50.024;14.492;2024-03-02T07:57:57;97160.78;;;7.80;89.38
75788;BME280;64406;50.024;14.492;2024-03-02T08:00:23;97160.09;;;7.69;89.64
75788;BME280;64406;50.024;14.492;2024-03-02T08:02:51;97158.03;;;7.61;90.63
75788;BME280;64406;50.024;14.492;2024-03-02T08:05:18;97162.53;;;7.66;90.21
75788;BME280;64406;50.024;14.492;2024-03-02T08:07:45;97159.84;;;7.66;90.84
75788;BME280;64406;50.024;14.492;2024-03-02T08:10:11;97169.44;;;7.48;90.67
75788;BME280;64406;50.024;14.492;2024-03-02T08:12:37;97154.47;;;7.47;91.81
75788;BME280;64406;50.024;14.492;2024-03-02T08:15:03;97168.53;;;7.57;90.95
75788;BME280;64406;50.024;14.492;2024-03-02T08:17:29;97180.72;;;7.45;90.47
75788;BME280;64406;50.024;14.492;2024-03-02T08:19:56;97174.34;;;7.41;90.64
75788;BME280;64406;50.024;14.492;2024-03-02T08:22:22;97171.88;;;7.44;91.23
75788;BME280;64406;50.024;14.492;2024-03-02T08:24:48;97175.03;;;7.51;91.00
75788;BME280;64406;50.024;14.492;2024-03-02T08:27:14;97181.13;;;7.33;90.83
75788;BME280;64406;50.024;14.492;2024-03-02T08:29:40;97186.81;;;7.26;91.89
75788;BME280;64406;50.024;14.492;2024-03-02T08:32:06;97176.59;;;7.28;92.26
75788;BME280;64406;50.024;14.492;2024-03-02T08:34:33;97180.16;;;7.19;92.13
75788;BME280;64406;50.024;14.492;2024-03-02T08:37:01;97179.63;;;7.22;92.30
75788;BME280;64406;50.024;14.492;2024-03-02T08:39:28;97191.50;;;7.40;92.53
75788;BME280;64406;50.024;14.492;2024-03-02T08:41:54;97179.78;;;7.30;91.77
75788;BME280;64406;50.024;14.492;2024-03-02T08:44:20;97194.22;;;7.34;92.45
75788;BME280;64406;50.024;14.492;2024-03-02T08:46:46;97192.22;;;7.45;91.29
75788;BME280;64406;50.024;14.492;2024-03-02T08:49:12;97190.31;;;7.51;90.90
75788;BME280;64406;50.024;14.492;2024-03-02T08:51:37;97184.72;;;7.47;90.69
75788;BME280;64406;50.024;14.492;2024-03-02T08:54:03;97194.56;;;7.52;91.12
75788;BME280;64406;50.024;14.492;2024-03-02T08:56:30;97185.31;;;7.68;90.69
75788;BME280;64406;50.024;14.492;2024-03-02T08:58:56;97184.03;;;7.84;90.29
75788;BME280;64406;50.024;14.492;2024-03-02T09:01:22;97184.91;;;7.80;89.06
75788;BME280;64406;50.024;14.492;2024-03-02T09:03:48;97180.00;;;7.87;88.49
75788;BME280;64406;50.024;14.492;2024-03-02T09:06:17;97191.91;;;8.00;88.52
75788;BME280;64406;50.024;14.492;2024-03-02T09:08:43;97191.25;;;8.08;88.20
75788;BME280;64406;50.024;14.492;2024-03-02T09:11:09;97181.00;;;8.34;87.18
75788;BME280;64406;50.024;14.492;2024-03-02T09:13:36;97187.56;;;8.65;86.87
75788;BME280;64406;50.024;14.492;2024-03-02T09:16:01;97185.06;;;8.69;85.53
75788;BME280;64406;50.024;14.492;2024-03-02T09:18:28;97196.81;;;8.92;85.14
75788;BME280;64406;50.024;14.492;2024-03-02T09:20:53;97197.81;;;8.96;82.41
75788;BME280;64406;50.024;14.492;2024-03-02T09:23:20;97195.16;;;9.10;81.96
75788;BME280;64406;50.024;14.492;2024-03-02T09:25:45;97191.38;;;9.11;81.59
75788;BME280;64406;50.024;14.492;2024-03-02T09:28:11;97187.06;;;9.42;80.89
75788;BME280;64406;50.024;14.492;2024-03-02T09:30:37;97189.06;;;9.37;81.03
75788;BME280;64406;50.024;14.492;2024-03-02T09:33:03;97181.31;;;9.63;79.94
75788;BME280;64406;50.024;14.492;2024-03-02T09:35:28;97181.13;;;9.87;78.93
75788;BME280;64406;50.024;14.492;2024-03-02T09:37:55;97185.72;;;9.86;77.62
75788;BME280;64406;50.024;14.492;2024-03-02T09:40:22;97194.78;;;9.90;77.57
75788;BME280;64406;50.024;14.492;2024-03-02T09:42:48;97190.78;;;10.15;78.40
75788;BME280;64406;50.024;14.492;2024-03-02T09:45:23;97189.91;;;10.06;76.33
75788;BME280;64406;50.024;14.492;2024-03-02T09:47:50;97184.59;;;10.15;76.06
75788;BME280;64406;50.024;14.492;2024-03-02T09:50:16;97177.59;;;10.41;75.40
75788;BME280;64406;50.024;14.492;2024-03-02T09:52:42;97180.22;;;10.69;73.92
75788;BME280;64406;50.024;14.492;2024-03-02T09:55:09;97178.38;;;11.00;73.93
75788;BME280;64406;50.024;14.492;2024-03-02T09:57:35;97176.28;;;11.20;72.90
75788;BME280;64406;50.024;14.492;2024-03-02T10:00:00;97185.59;;;11.13;72.31
75788;BME280;64406;50.024;14.492;2024-03-02T10:02:26;97183.47;;;10.79;73.07
75788;BME280;64406;50.024;14.492;2024-03-02T10:04:52;97186.00;;;10.98;73.74
75788;BME280;64406;50.024;14.492;2024-03-02T10:07:19;97184.47;;;10.83;73.14
75788;BME280;64406;50.024;14.492;2024-03-02T10:09:48;97193.66;;;11.05;73.13
75788;BME280;64406;50.024;14.492;2024-03-02T10:12:16;97191.47;;;11.15;72.07
75788;BME280;64406;50.024;14.492;2024-03-02T10:14:43;97197.19;;;10.92;72.52
75788;BME280;64406;50.024;14.492;2024-03-02T10:17:10;97187.69;;;10.94;73.37
75788;BME280;64406;50.024;14.492;2024-03-02T10:19:37;97198.91;;;10.87;72.64
75788;BME280;64406;50.024;14.492;2024-03-02T10:22:04;97201.97;;;10.72;74.02
75788;BME280;64406;50.024;14.492;2024-03-02T10:24:39;97201.97;;;10.95;73.23
75788;BME280;64406;50.024;14.492;2024-03-02T10:27:10;97206.06;;;10.92;72.19
75788;BME280;64406;50.024;14.492;2024-03-02T10:29:37;97194.56;;;11.00;73.29
75788;BME280;64406;50.024;14.492;2024-03-02T10:32:04;97195.97;;;10.98;72.11
75788;BME280;64406;50.024;14.492;2024-03-02T10:34:31;97188.94;;;11.41;71.46
75788;BME280;64406;50.024;14.492;2024-03-02T10:36:59;97183.72;;;11.45;69.63
75788;BME280;64406;50.024;14.492;2024-03-02T10:39:25;97188.47;;;11.39;70.20
75788;BME280;64406;50.024;14.492;2024-03-02T10:41:52;97181.75;;;11.99;67.95
75788;BME280;64406;50.024;14.492;2024-03-02T10:44:18;97162.38;;;11.97;66.97
75788;BME280;64406;50.024;14.492;2024-03-02T10:46:45;97164.19;;;12.19;67.26
75788;BME280;64406;50.024;14.492;2024-03-02T10:49:12;97164.31;;;12.05;66.83
75788;BME280;64406;50.024;14.492;2024-03-02T10:51:38;97170.91;;;11.82;67.31
75788;BME280;64406;50.024;14.492;2024-03-02T10:54:04;97167.03;;;12.14;65.99
75788;BME280;64406;50.024;14.492;2024-03-02T10:56:31;97162.31;;;12.28;66.26
75788;BME280;64406;50.024;14.492;2024-03-02T11:01:58;97155.81;;;12.55;64.48
75788;BME280;64406;50.024;14.492;2024-03-02T11:04:25;97154.84;;;12.86;63.62
75788;BME280;64406;50.024;14.492;2024-03-02T11:07:04;97148.47;;;12.73;62.79
75788;BME280;64406;50.024;14.492;2024-03-02T11:09:33;97156.59;;;12.90;62.10
75788;BME280;64406;50.024;14.492;2024-03-02T11:14:25;97155.63;;;12.77;62.29
75788;BME280;64406;50.024;14.492;2024-03-02T11:16:51;97160.84;;;13.00;60.98
75788;BME280;64406;50.024;14.492;2024-03-02T11:19:18;97149.59;;;12.72;62.27
75788;BME280;64406;50.024;14.492;2024-03-02T11:21:45;97140.41;;;12.56;62.31
75788;BME280;64406;50.024;14.492;2024-03-02T11:27:05;97136.84;;;12.03;64.33
75788;BME280;64406;50.024;14.492;2024-03-02T11:32:06;97135.63;;;11.69;65.58
75788;BME280;64406;50.024;14.492;2024-03-02T11:34:41;97129.22;;;12.14;63.75
75788;BME280;64406;50.024;14.492;2024-03-02T11:37:10;97125.91;;;12.25;62.82
75788;BME280;64406;50.024;14.492;2024-03-02T11:39:38;97126.72;;;12.35;62.60
75788;BME280;64406;50.024;14.492;2024-03-02T11:42:07;97119.44;;;12.61;61.35
75788;BME280;64406;50.024;14.492;2024-03-02T11:44:35;97121.94;;;11.26;64.21
75788;BME280;64406;50.024;14.492;2024-03-02T11:47:05;97124.22;;;11.41;65.79
75788;BME280;64406;50.024;14.492;2024-03-02T11:52:09;97123.72;;;11.79;67.05
75788;BME280;64406;50.024;14.492;2024-03-02T11:54:37;97122.03;;;11.83;66.47
75788;BME280;64406;50.024;14.492;2024-03-02T11:57:07;97124.31;;;12.16;64.53
75788;BME280;64406;50.024;14.492;2024-03-02T11:59:33;97122.16;;;11.78;65.42
75788;BME280;64406;50.024;14.492;2024-03-02T12:02:00;97134.28;;;11.58;66.52
75788;BME280;64406;50.024;14.492;2024-03-02T12:04:26;97124.22;;;11.81;65.81
75788;BME280;64406;50.024;14.492;2024-03-02T12:06:55;97124.41;;;11.85;66.00
75788;BME280;64406;50.024;14.492;2024-03-02T12:09:22;97125.59;;;12.18;65.59
75788;BME280;64406;50.024;14.492;2024-03-02T12:11:47;97117.03;;;12.51;63.98
75788;BME280;64406;50.024;14.492;2024-03-02T12:14:13;97115.91;;;12.43;63.35
75788;BME280;64406;50.024;14.492;2024-03-02T12:16:43;97113.53;;;12.76;63.04
75788;BME280;64406;50.024;14.492;2024-03-02T12:19:09;97115.88;;;12.95;61.76
75788;BME280;64406;50.024;14.492;2024-03-02T12:21:35;97121.16;;;12.66;61.78
75788;BME280;64406;50.024;14.492;2024-03-02T12:24:02;97121.75;;;12.97;61.10
75788;BME280;64406;50.024;14.492;2024-03-02T12:26:28;97115.28;;;12.81;61.26
75788;BME280;64406;50.024;14.492;2024-03-02T12:28:54;97113.66;;;12.80;62.00
75788;BME280;64406;50.024;14.492;2024-03-02T12:31:20;97121.91;;;13.01;61.45
75788;BME280;64406;50.024;14.492;2024-03-02T12:33:46;97112.03;;;13.22;61.56
75788;BME280;64406;50.024;14.492;2024-03-02T12:36:13;97117.09;;;13.15;61.38
75788;BME280;64406;50.024;14.492;2024-03-02T12:38:43;97114.47;;;12.89;62.09
75788;BME280;64406;50.024;14.492;2024-03-02T12:41:09;97125.16;;;12.42;64.64
75788;BME280;64406;50.024;14.492;2024-03-02T12:43:35;97118.63;;;12.43;64.43
75788;BME280;64406;50.024;14.492;2024-03-02T12:46:00;97118.44;;;12.40;63.60
75788;BME280;64406;50.024;14.492;2024-03-02T12:48:26;97120.38;;;12.22;64.31
75788;BME280;64406;50.024;14.492;2024-03-02T12:50:52;97110.44;;;11.83;65.48
75788;BME280;64406;50.024;14.492;2024-03-02T12:53:18;97115.06;;;11.82;66.06
75788;BME280;64406;50.024;14.492;2024-03-02T12:55:44;97112.66;;;11.81;67.07
75788;BME280;64406;50.024;14.492;2024-03-02T12:58:19;97118.72;;;11.95;66.39
75788;BME280;64406;50.024;14.492;2024-03-02T13:00:49;97108.97;;;11.77;67.08
75788;BME280;64406;50.024;14.492;2024-03-02T13:03:14;97103.84;;;11.66;67.76
75788;BME280;64406;50.024;14.492;2024-03-02T13:05:48;97102.84;;;11.45;69.11
75788;BME280;64406;50.024;14.492;2024-03-02T13:08:14;97111.63;;;11.28;68.66
75788;BME280;64406;50.024;14.492;2024-03-02T13:10:40;97110.47;;;11.52;68.50